BGGHBGBW

Guest
Details From BGGH - Nuuk
To BGBW - Narsarsuaq
Flight Number -
Tags generated
Created
Modified
Stats Distance 264 nm / 489 km
Max Altitude 19,500 ft / 5,944 m
Waypoints 5
Social Downloads 0
Likes 0
Share VATSIM

Download

Looking for another format? Having issues loading an existing format? Contact us
Advertisement - Login to hide

Notes

Basic altitude profile: - Ascent Rate: 2500ft/min - Ascent Speed: 250kts - Cruise Altitude: 35000ft - Cruise Speed: 420kts - Descent Rate: 1500ft/min - Descent Speed: 250kts Options: - Use NATs: yes - Use PACOTS: yes - Use low airways: yes - Use high airways: no

Route

BGGH KU W26 NA BGBW

ID Type Via Altitude Latitude Longitude Leg Dist Tot Dist Heading (true) Name
O BGGH APT - 0 ft / 0 m 64.19302˚ -51.67645˚ - 0 nm - Nuuk
KU NDB - 4,100 ft / 1,250 m 64.07000˚ -52.01306˚ 11 nm 11 nm 230° / 230° KOOK ISLANDS NDB
KITAP FIX W26 (AWY-LO) 19,500 ft / 5,944 m 62.41167˚ -47.99583˚ 147 nm 158 nm 131° / 134° -
NA NDB W26 (AWY-LO) 9,500 ft / 2,896 m 61.17074˚ -45.41295˚ 104 nm 263 nm 134° / 137° NARSARSUAQ NDB
O BGBW APT - 0 ft / 0 m 61.16052˚ -45.42598˚ 0 nm 264 nm 212° / 212° Narsarsuaq

Altitude Profile

Advertisement - Login to hide

Weather


0- 5 10 15 20 25 30 35+ Temperature / ° C

Clouds and Precipitation
Forecast for 2017-12-12 12:00 UTC. Updated an hour ago

Ground ~20,000 ft ~40,000 ft Winds

BGGH

Details ICAO BGGH (GOH)
Name Nuuk
Region Greenland
Timezone America/Godthab (UTC-3.0)
Stats Elevation 283 ft / 86 m (AMSL)
Location 64.193021° -51.676454°
Runways 1
Magnetic Variation 27.021° W

METAR

BGGH 120950Z 18006KT 7000 -SN FEW007 BKN012 OVC025 M00/M01 Q0975

Decode

TAF

Not found

Departure Runways

ID Width Length Bearing (true) Bearing (mag) Surface Threshold Offset Overrun Length
05 98 ft / 30 m 3,113 ft / 949 m 18.44° 45.46° Asphalt 0 ft / 0 m 0 ft / 0 m
23 98 ft / 30 m 3,113 ft / 949 m 198.44° 225.46° Asphalt 0 ft / 0 m 0 ft / 0 m

BGBW

Details ICAO BGBW (UAK)
Name Narsarsuaq
Region Greenland
Timezone America/Godthab (UTC-3.0)
Stats Elevation 112 ft / 34 m (AMSL)
Location 61.160516° -45.425976°
Runways 1
Magnetic Variation 22.907° W

METAR

BGBW 120950Z 10003KT 1200 SN VV008 M01/M03 Q0979

Decode

TAF

Not found

Destination Runways

ID Width Length Bearing (true) Bearing (mag) Surface Threshold Offset Overrun Length
07 148 ft / 45 m 5,921 ft / 1,805 m 40.57° 63.48° Concrete 0 ft / 0 m 0 ft / 0 m
25 148 ft / 45 m 5,921 ft / 1,805 m 220.58° 243.49° Concrete 0 ft / 0 m 279 ft / 85 m

Popular Alternatives